Time;durP1;ratioP1;P1;durP2;ratioP2;P2;SDS_P1;SDS_P2;PMS_P1;PMS_P2;Temp;Humidity;BMP_temperature;BMP_pressure;BME280_temperature;BME280_humidity;BME280_pressure;Samples;Min_cycle;Max_cycle;Signal;HPM_P1;HPM_P2
2022/02/11 00:07:35;;;;;;;1.55;1.05;;;;;;;-145.06;0.00;60892.56;4835192;28;20030;-87
2022/02/11 00:10:14;;;;;;;1.43;1.30;;;;;;;-145.06;0.00;60892.56;4834550;28;20022;-87
2022/02/11 00:12:54;;;;;;;1.67;1.23;;;;;;;-145.06;0.00;60892.56;4839035;28;20038;-87
2022/02/11 00:15:43;;;;;;;2.33;1.50;;;;;;;10.68;0.00;60892.56;4839202;28;20042;-86
2022/02/11 00:18:22;;;;;;;1.40;1.20;;;;;;;3.99;0.00;60892.56;4827241;28;20473;-88
2022/02/11 00:21:01;;;;;;;2.60;1.27;;;;;;;-145.06;0.00;60892.56;4822174;28;20046;-86
2022/02/11 00:23:39;;;;;;;2.03;1.40;;;;;;;4.19;0.00;60892.56;4837567;28;20021;-87
2022/02/11 00:26:19;;;;;;;1.53;1.37;;;;;;;4.03;0.00;60892.56;4836018;28;20042;-88
2022/02/11 00:32:08;;;;;;;2.60;2.05;;;;;;;4.01;0.00;60892.56;4830328;28;20030;-87
2022/02/11 00:34:54;;;;;;;3.10;2.10;;;;;;;-145.06;0.00;60892.56;4829167;28;20369;-87
2022/02/11 00:37:37;;;;;;;3.65;2.20;;;;;;;-145.06;0.00;60892.56;4834088;28;20444;-88
2022/02/11 00:44:02;;;;;;;;;;;;;;;;;;;;;
2022/02/11 01:03:59;;;;;;;2.92;2.15;;;;;;;21.08;0.00;60892.56;4830914;28;20065;-87
2022/02/11 01:06:40;;;;;;;4.50;2.72;;;;;;;-145.06;0.00;60892.56;4841963;28;20070;-86
2022/02/11 01:09:19;;;;;;;2.88;2.35;;;;;;;187.52;0.00;60892.56;4832857;28;20042;-87
2022/02/11 01:12:02;;;;;;;4.03;2.50;;;;;;;-145.06;0.00;60892.56;4838903;28;20038;-87
2022/02/11 01:14:51;;;;;;;4.00;2.80;;;;;;;5.49;0.00;60892.56;4829143;28;20034;-87
2022/02/11 01:17:36;;;;;;;3.92;2.63;;;;;;;-145.06;0.00;60892.56;4830759;28;20121;-87
2022/02/11 01:20:27;;;;;;;3.47;2.45;;;;;;;5.49;0.00;60892.56;4830426;28;20038;-86
2022/02/11 01:31:45;;;;;;;5.43;2.73;;;;;;;5.16;0.00;60892.56;4842359;28;20030;-86
2022/02/11 01:37:54;;;;;;;3.72;2.95;;;;;;;4.19;0.00;60892.56;4828300;28;20031;-87
2022/02/11 01:40:42;;;;;;;3.63;2.75;;;;;;;-145.06;0.00;60892.56;4839436;28;20113;-87
2022/02/11 01:52:47;;;;;;;6.18;3.70;;;;;;;-145.06;0.00;60892.56;4824343;28;20124;-86
2022/02/11 02:22:06;;;;;;;8.65;4.65;;;;;;;-145.06;0.00;60892.56;4833791;28;20038;-87
2022/02/11 02:33:50;;;;;;;7.67;4.80;;;;;;;-145.06;0.00;60892.56;4835585;28;20492;-87
2022/02/11 02:57:07;;;;;;;8.48;4.97;;;;;;;-145.06;0.00;60892.56;4841686;28;20029;-88
2022/02/11 03:49:15;;;;;;;7.10;4.38;;;;;;;-145.06;0.00;60892.56;4827256;28;20026;-87
2022/02/11 04:56:09;;;;;;;6.73;3.27;;;;;;;-145.06;0.00;60892.56;4835875;28;20057;-86
2022/02/11 05:01:46;;;;;;;7.25;3.10;;;;;;;21.08;0.00;60892.56;4833685;28;20109;-87
2022/02/11 05:04:25;;;;;;;7.57;3.40;;;;;;;187.52;0.00;60892.56;4834711;28;20023;-86
2022/02/11 05:07:04;;;;;;;8.63;3.70;;;;;;;4.19;0.00;60892.56;4839928;28;20042;-88
2022/02/11 05:09:43;;;;;;;7.43;3.00;;;;;;;-145.06;0.00;60892.56;4835490;28;20344;-88
2022/02/11 05:12:22;;;;;;;8.60;3.70;;;;;;;187.52;0.00;60892.56;4837271;28;20280;-87
2022/02/11 05:15:08;;;;;;;6.93;3.63;;;;;;;4.19;0.00;60892.56;4825122;28;20025;-86
2022/02/11 05:17:51;;;;;;;7.38;3.40;;;;;;;-145.06;0.00;60892.56;4844512;28;20121;-88
2022/02/11 05:20:30;;;;;;;8.93;3.78;;;;;;;-145.06;0.00;60892.56;4833355;28;20369;-87
2022/02/11 05:23:13;;;;;;;6.20;2.95;;;;;;;4.13;0.00;60892.56;4839144;28;20116;-87
2022/02/11 05:25:52;;;;;;;9.23;3.90;;;;;;;-145.06;0.00;60892.56;4832588;28;20392;-87
2022/02/11 05:28:31;;;;;;;7.00;2.92;;;;;;;-145.06;0.00;60892.56;4855351;28;20034;-88
2022/02/11 05:31:10;;;;;;;5.20;2.77;;;;;;;-145.06;0.00;60892.56;4834566;28;20037;-86
2022/02/11 05:33:49;;;;;;;5.40;2.97;;;;;;;4.11;0.00;60892.56;4834999;28;20041;-88
2022/02/11 05:36:28;;;;;;;6.00;2.95;;;;;;;-145.06;0.00;60892.56;4832973;28;20038;-87
2022/02/11 05:39:07;;;;;;;5.40;3.13;;;;;;;-145.06;0.00;60892.56;4833983;28;20066;-87
2022/02/11 05:41:46;;;;;;;8.70;3.30;;;;;;;-145.06;0.00;60892.56;4836443;28;20026;-87
2022/02/11 05:44:25;;;;;;;8.50;3.17;;;;;;;4.16;0.00;60892.56;4831731;28;20620;-87
2022/02/11 05:47:04;;;;;;;6.10;3.23;;;;;;;-145.06;0.00;60892.56;4831563;28;20276;-86
2022/02/11 05:49:43;;;;;;;9.73;2.93;;;;;;;4.84;0.00;60892.56;4834823;28;20261;-87
2022/02/11 05:52:22;;;;;;;5.17;2.77;;;;;;;-145.06;0.00;60892.56;4831911;28;20033;-87
2022/02/11 05:55:02;;;;;;;7.93;3.20;;;;;;;-145.06;0.00;60892.56;4837051;28;20285;-86
2022/02/11 05:57:41;;;;;;;7.45;3.22;;;;;;;-145.06;0.00;60892.56;4845309;28;20034;-87
2022/02/11 06:00:20;;;;;;;7.43;3.17;;;;;;;10.68;0.00;60892.56;4830882;28;20037;-87
2022/02/11 06:02:59;;;;;;;5.17;2.90;;;;;;;-145.06;0.00;60892.56;4853566;28;20368;-87
2022/02/11 06:05:38;;;;;;;9.87;3.13;;;;;;;5.49;0.00;60892.56;4828078;28;20025;-87
2022/02/11 06:08:17;;;;;;;6.17;2.80;;;;;;;-145.06;0.00;60892.56;4837360;28;20042;-85
2022/02/11 06:10:56;;;;;;;4.63;2.92;;;;;;;-145.06;0.00;60892.56;4845550;28;20340;-87
2022/02/11 06:13:35;;;;;;;5.70;2.57;;;;;;;-145.06;0.00;60892.56;4843999;28;20112;-85
2022/02/11 06:16:14;;;;;;;10.65;3.45;;;;;;;-145.06;0.00;60892.56;4831184;28;20038;-87
2022/02/11 06:18:53;;;;;;;5.50;2.60;;;;;;;-145.06;0.00;60892.56;4833433;28;20042;-86
2022/02/11 06:21:32;;;;;;;5.05;2.42;;;;;;;-145.06;0.00;60892.56;4847574;28;20608;-87
2022/02/11 06:24:11;;;;;;;9.07;2.70;;;;;;;-145.06;0.00;60892.56;4839051;28;20104;-88
2022/02/11 06:26:50;;;;;;;8.70;2.50;;;;;;;-145.06;0.00;60892.56;4828815;28;20030;-88
2022/02/11 06:29:29;;;;;;;6.97;2.58;;;;;;;-145.06;0.00;60892.56;4836289;28;20108;-87
2022/02/11 06:32:08;;;;;;;8.37;2.70;;;;;;;-145.06;0.00;60892.56;4831548;28;20049;-87
2022/02/11 06:34:47;;;;;;;7.68;2.47;;;;;;;-145.06;0.00;60892.56;4832951;28;20367;-88
2022/02/11 06:37:26;;;;;;;8.13;2.80;;;;;;;-145.06;0.00;60892.56;4834513;28;20128;-87
2022/02/11 06:40:05;;;;;;;6.67;2.60;;;;;;;-145.06;0.00;60892.56;4835798;28;20289;-88
2022/02/11 06:42:45;;;;;;;7.85;2.70;;;;;;;-145.06;0.00;60892.56;4830830;28;20363;-87
2022/02/11 06:45:28;;;;;;;4.55;2.28;;;;;;;-145.06;0.00;60892.56;4831767;28;20420;-87
2022/02/11 06:48:07;;;;;;;6.55;2.58;;;;;;;-145.06;0.00;60892.56;4830909;28;20029;-87
2022/02/11 06:50:47;;;;;;;6.15;2.63;;;;;;;-145.06;0.00;60892.56;4835780;28;20109;-88
2022/02/11 06:53:26;;;;;;;5.40;2.15;;;;;;;-145.06;0.00;60892.56;4830975;28;20046;-88
2022/02/11 06:56:05;;;;;;;6.07;2.10;;;;;;;-145.06;0.00;60892.56;4837789;28;20038;-87
2022/02/11 06:58:45;;;;;;;5.15;2.10;;;;;;;-145.06;0.00;60892.56;4830617;28;20443;-87
2022/02/11 07:01:25;;;;;;;6.55;2.30;;;;;;;-145.06;0.00;60892.56;4837380;28;20068;-88
2022/02/11 07:04:04;;;;;;;5.07;2.17;;;;;;;-145.06;0.00;60892.56;4850268;28;20763;-88
2022/02/11 07:06:43;;;;;;;5.30;2.28;;;;;;;-145.06;0.00;60892.56;4831299;28;20045;-88
2022/02/11 07:09:23;;;;;;;8.93;2.35;;;;;;;-145.06;0.00;60892.56;4831024;28;20029;-88
2022/02/11 07:12:02;;;;;;;7.80;2.50;;;;;;;-145.06;0.00;60892.56;4835636;28;20042;-87
2022/02/11 07:14:41;;;;;;;6.63;2.00;;;;;;;-145.06;0.00;60892.56;4848148;28;20029;-87
2022/02/11 07:17:20;;;;;;;8.23;2.55;;;;;;;-145.06;0.00;60892.56;4833033;28;20037;-88
2022/02/11 07:20:00;;;;;;;5.13;2.30;;;;;;;-145.06;0.00;60892.56;4833963;28;20034;-88
2022/02/11 07:22:39;;;;;;;;;;;;;;;-145.06;0.00;60892.56;4834290;28;20272;-88
2022/02/11 07:25:18;;;;;;;9.43;2.63;;;;;;;-145.06;0.00;60892.56;4830910;28;20364;-88
2022/02/11 07:27:57;;;;;;;7.57;2.10;;;;;;;-145.06;0.00;60892.56;4836347;28;20085;-87
2022/02/11 07:30:36;;;;;;;4.60;2.00;;;;;;;-145.06;0.00;60892.56;4821975;28;20030;-89
2022/02/11 07:33:15;;;;;;;6.45;2.47;;;;;;;-145.06;0.00;60892.56;4835298;28;20381;-88
2022/02/11 07:35:54;;;;;;;7.45;2.38;;;;;;;-145.06;0.00;60892.56;4836935;28;20026;-87
2022/02/11 07:38:33;;;;;;;5.53;1.92;;;;;;;-145.06;0.00;60892.56;4831273;28;20038;-87
2022/02/11 07:41:12;;;;;;;4.45;2.05;;;;;;;-145.06;0.00;60892.56;4831431;28;20026;-88
2022/02/11 07:43:52;;;;;;;;;;;;;;;-145.06;0.00;60892.56;4836646;28;20037;-87
2022/02/11 07:46:31;;;;;;;9.17;2.77;;;;;;;-145.06;0.00;60892.56;4831458;28;19913;-88
2022/02/11 07:49:10;;;;;;;8.50;2.83;;;;;;;-145.06;0.00;60892.56;4836660;28;20347;-88
2022/02/11 07:51:49;;;;;;;8.00;3.08;;;;;;;-145.06;0.00;60892.56;4826531;28;20034;-88
2022/02/11 07:54:28;;;;;;;7.13;2.53;;;;;;;-145.06;0.00;60892.56;4826539;28;20104;-87
2022/02/11 07:57:07;;;;;;;7.93;2.50;;;;;;;-145.06;0.00;60892.56;4835034;28;20161;-87
2022/02/11 07:59:46;;;;;;;13.10;3.13;;;;;;;-145.06;0.00;60892.56;4825392;28;20400;-88
2022/02/11 08:02:24;;;;;;;6.40;2.45;;;;;;;-145.06;0.00;60892.56;4835744;28;20280;-88
2022/02/11 08:05:04;;;;;;;7.28;2.58;;;;;;;-145.06;0.00;60892.56;4818549;28;20034;-88
2022/02/11 08:07:44;;;;;;;7.28;2.58;;;;;;;-145.06;0.00;60892.56;4838314;28;20046;-87
2022/02/11 08:10:22;;;;;;;6.25;2.75;;;;;;;-145.06;0.00;60892.56;4836348;28;20034;-87
2022/02/11 08:13:02;;;;;;;5.28;2.47;;;;;;;-145.06;0.00;60892.56;4825938;28;20042;-88
2022/02/11 08:15:41;;;;;;;7.57;2.63;;;;;;;-145.06;0.00;60892.56;4826987;28;20038;-87
2022/02/11 08:18:20;;;;;;;4.77;2.13;;;;;;;-145.06;0.00;60892.56;4834481;28;20034;-88
2022/02/11 08:20:59;;;;;;;6.77;2.40;;;;;;;-145.06;0.00;60892.56;4829756;28;20547;-88
2022/02/11 08:23:38;;;;;;;6.10;2.10;;;;;;;-145.06;0.00;60892.56;4835351;28;20265;-87
2022/02/11 08:26:17;;;;;;;6.73;2.13;;;;;;;-145.06;0.00;60892.56;4827288;28;20034;-87
2022/02/11 08:28:56;;;;;;;7.20;2.27;;;;;;;5.49;0.00;60892.56;4844615;28;20365;-88
2022/02/11 08:31:36;;;;;;;8.07;2.60;;;;;;;5.16;0.00;60892.56;4835134;28;20266;-87
2022/02/11 08:34:15;;;;;;;6.88;2.22;;;;;;;-145.06;0.00;60892.56;4830882;28;20046;-88
2022/02/11 08:36:54;;;;;;;7.93;2.50;;;;;;;-145.06;0.00;60892.56;4847965;28;20728;-89
2022/02/11 08:39:34;;;;;;;5.32;2.15;;;;;;;-145.06;0.00;60892.56;4836998;28;20365;-88
2022/02/11 08:42:14;;;;;;;7.07;2.08;;;;;;;-145.06;0.00;60892.56;4851808;28;20030;-87
2022/02/11 08:44:53;;;;;;;7.22;2.20;;;;;;;5.49;0.00;60892.56;4831104;28;20033;-88
2022/02/11 08:47:32;;;;;;;6.87;2.07;;;;;;;5.32;0.00;60892.56;4828782;28;20038;-87
2022/02/11 08:50:14;;;;;;;5.75;1.95;;;;;;;-145.06;0.00;60892.56;4833067;28;20269;-87
2022/02/11 08:52:53;;;;;;;4.25;1.88;;;;;;;5.32;0.00;60892.56;4854508;28;20033;-88
2022/02/11 08:55:33;;;;;;;5.13;1.77;;;;;;;-145.06;0.00;60892.56;4865176;28;20586;-87
2022/02/11 08:58:12;;;;;;;6.30;1.95;;;;;;;-145.06;0.00;60892.56;4845625;28;20285;-86
2022/02/11 09:00:51;;;;;;;6.45;1.85;;;;;;;-145.06;0.00;60892.56;4840242;28;20030;-87
2022/02/11 09:03:30;;;;;;;3.73;1.73;;;;;;;-145.06;0.00;60892.56;4838932;28;20022;-87
2022/02/11 09:06:09;;;;;;;7.53;2.30;;;;;;;5.40;0.00;60892.56;4840800;28;20025;-87
2022/02/11 09:08:50;;;;;;;5.05;2.10;;;;;;;5.39;0.00;60892.56;4831982;28;20034;-87
2022/02/11 09:11:29;;;;;;;6.15;2.35;;;;;;;5.49;0.00;60892.56;4838937;28;20425;-88
2022/02/11 09:14:08;;;;;;;4.57;1.70;;;;;;;-145.06;0.00;60892.56;4861185;28;20029;-88
2022/02/11 09:16:47;;;;;;;6.18;1.55;;;;;;;-145.06;0.00;60892.56;4843169;28;20042;-87
2022/02/11 09:19:26;;;;;;;5.53;1.97;;;;;;;-145.06;0.00;60892.56;4831750;28;20029;-87
2022/02/11 09:22:05;;;;;;;5.63;2.00;;;;;;;-145.06;0.00;60892.56;4823743;28;20027;-87
2022/02/11 09:24:44;;;;;;;7.60;2.10;;;;;;;-145.06;0.00;60892.56;4839606;28;20272;-88
2022/02/11 09:27:23;;;;;;;7.93;2.33;;;;;;;5.81;0.00;60892.56;4836916;28;20030;-87
2022/02/11 09:30:02;;;;;;;10.30;2.47;;;;;;;-145.06;0.00;60892.56;4845844;28;20093;-88
2022/02/11 09:32:43;;;;;;;7.13;2.83;;;;;;;-145.06;0.00;60892.56;4861189;28;20226;-87
2022/02/11 09:35:23;;;;;;;5.53;2.10;;;;;;;-145.06;0.00;60892.56;4852421;28;20038;-88
2022/02/11 09:38:02;;;;;;;;;;;;;;;-145.06;0.00;60892.56;4838560;28;20026;-87
2022/02/11 09:40:46;;;;;;;12.05;2.42;;;;;;;-145.06;0.00;60892.56;4836356;28;19917;-88
2022/02/11 09:43:26;;;;;;;6.10;2.00;;;;;;;-145.06;0.00;60892.56;4834406;28;20029;-87
2022/02/11 09:46:06;;;;;;;;;;;;;;;-145.06;0.00;60892.56;4820568;28;20069;-87
2022/02/11 09:48:45;;;;;;;7.13;2.50;;;;;;;-145.06;0.00;60892.56;4835178;28;19910;-87
2022/02/11 09:51:25;;;;;;;6.93;1.90;;;;;;;-145.06;0.00;60892.56;4838341;28;20773;-87
2022/02/11 09:54:04;;;;;;;;;;;;;;;-145.06;0.00;60892.56;4831651;28;20061;-88
2022/02/11 09:56:43;;;;;;;2.78;1.83;;;;;;;-145.06;0.00;60892.56;4854056;28;19956;-88
2022/02/11 09:59:23;;;;;;;5.95;2.10;;;;;;;-145.06;0.00;60892.56;4833205;28;20034;-88
2022/02/11 10:02:03;;;;;;;7.30;2.00;;;;;;;-145.06;0.00;60892.56;4851595;28;20029;-87
2022/02/11 10:04:54;;;;;;;;;;;;;;;-145.06;0.00;60892.56;4834846;28;20042;-87
2022/02/11 10:07:45;;;;;;;5.60;1.95;;;;;;;-145.06;0.00;60892.56;4838154;28;19913;-88
2022/02/11 10:10:47;;;;;;;5.78;1.52;;;;;;;-145.06;0.00;60892.56;4832116;28;20030;-87
2022/02/11 10:13:31;;;;;;;5.28;1.65;;;;;;;-145.06;0.00;60892.56;4848869;28;20038;-88
2022/02/11 10:16:12;;;;;;;5.03;1.60;;;;;;;-145.06;0.00;60892.56;4832579;28;20058;-87
2022/02/11 10:18:53;;;;;;;7.35;1.63;;;;;;;-145.06;0.00;60892.56;4840080;28;20356;-87
2022/02/11 10:21:34;;;;;;;4.00;1.80;;;;;;;-145.06;0.00;60892.56;4838097;28;20456;-88
2022/02/11 10:24:26;;;;;;;4.97;1.90;;;;;;;-145.06;0.00;60892.56;4835158;28;20057;-88
2022/02/11 10:27:20;;;;;;;6.60;1.70;;;;;;;-145.06;0.00;60892.56;4845080;28;20050;-88
2022/02/11 10:30:14;;;;;;;4.63;1.25;;;;;;;-145.06;0.00;60892.56;4837326;28;20025;-88
2022/02/11 10:32:54;;;;;;;6.32;1.40;;;;;;;6.22;0.00;60892.56;4836286;28;20034;-87
2022/02/11 10:35:33;;;;;;;7.80;1.38;;;;;;;-145.06;0.00;60892.56;4838754;28;20034;-87
2022/02/11 10:38:17;;;;;;;7.43;1.73;;;;;;;-145.06;0.00;60892.56;4837815;28;20491;-87
2022/02/11 10:40:59;;;;;;;5.50;1.60;;;;;;;187.52;0.00;60892.56;4829741;28;20042;-88
2022/02/11 10:43:38;;;;;;;8.27;1.60;;;;;;;-145.06;0.00;60892.56;4828553;28;20030;-88
2022/02/11 10:46:17;;;;;;;4.40;1.20;;;;;;;-145.06;0.00;60892.56;4853942;28;20033;-87
2022/02/11 10:48:58;;;;;;;3.43;1.10;;;;;;;8.08;0.00;60892.56;4839000;28;20026;-87
2022/02/11 10:51:45;;;;;;;4.85;1.55;;;;;;;-145.06;0.00;60892.56;4840794;28;20025;-88
2022/02/11 10:54:35;;;;;;;5.68;1.08;;;;;;;21.08;0.00;60892.56;4828143;28;20104;-88
2022/02/11 10:57:16;;;;;;;5.72;1.50;;;;;;;-145.06;0.00;60892.56;4836796;28;20022;-88
2022/02/11 10:59:55;;;;;;;2.22;0.77;;;;;;;-145.06;0.00;60892.56;4835806;28;20034;-88
2022/02/11 11:02:36;;;;;;;2.92;1.15;;;;;;;-145.06;0.00;60892.56;4827584;28;20041;-87
2022/02/11 11:05:14;;;;;;;;;;;;;;;-145.06;0.00;60892.56;4838242;28;20116;-88
2022/02/11 11:07:54;;;;;;;3.20;1.47;;;;;;;6.30;0.00;60892.56;4843233;28;19913;-88
2022/02/11 11:10:34;;;;;;;6.65;1.35;;;;;;;6.42;0.00;60892.56;4830862;28;20485;-87
2022/02/11 11:13:15;;;;;;;3.78;1.10;;;;;;;-145.06;0.00;60892.56;4837296;28;20041;-88
2022/02/11 11:15:55;;;;;;;6.85;1.50;;;;;;;-145.06;0.00;60892.56;4831092;28;20037;-88
2022/02/11 11:18:38;;;;;;;2.42;0.98;;;;;;;-145.06;0.00;60892.56;4828377;28;20038;-88
2022/02/11 11:21:17;;;;;;;5.15;1.33;;;;;;;-145.06;0.00;60892.56;4833906;28;20045;-88
2022/02/11 11:23:58;;;;;;;4.00;1.30;;;;;;;-145.06;0.00;60892.56;4850570;28;20034;-88
2022/02/11 11:26:57;;;;;;;4.47;1.35;;;;;;;-145.06;0.00;60892.56;4831107;28;20038;-87
2022/02/11 11:29:36;;;;;;;6.45;1.95;;;;;;;-145.06;0.00;60892.56;4831209;28;20074;-87
2022/02/11 11:32:15;;;;;;;5.10;1.83;;;;;;;-145.06;0.00;60892.56;4837768;28;20061;-87
2022/02/11 11:35:05;;;;;;;3.87;1.33;;;;;;;-145.06;0.00;60892.56;4830896;28;20030;-88
2022/02/11 11:38:16;;;;;;;4.45;1.40;;;;;;;-145.06;0.00;60892.56;4846125;28;20042;-87
2022/02/11 11:41:02;;;;;;;7.10;1.55;;;;;;;-145.06;0.00;60892.56;4835935;28;20065;-87
2022/02/11 11:43:45;;;;;;;5.82;1.38;;;;;;;-145.06;0.00;60892.56;4834887;28;20026;-87
2022/02/11 11:46:27;;;;;;;8.18;2.03;;;;;;;-145.06;0.00;60892.56;4825607;28;20041;-87
2022/02/11 11:49:11;;;;;;;10.60;2.13;;;;;;;-145.06;0.00;60892.56;4837400;28;20467;-87
2022/02/11 11:51:50;;;;;;;8.15;2.00;;;;;;;-145.06;0.00;60892.56;4826631;28;20033;-88
2022/02/11 11:54:31;;;;;;;5.95;1.90;;;;;;;10.68;0.00;60892.56;4837524;28;20464;-88
2022/02/11 11:57:14;;;;;;;5.78;1.52;;;;;;;-145.06;0.00;60892.56;4836896;28;20076;-87
2022/02/11 11:59:57;;;;;;;2.28;0.93;;;;;;;-145.06;0.00;60892.56;4840450;28;20037;-88
2022/02/11 12:02:38;;;;;;;7.00;1.10;;;;;;;8.08;0.00;60892.56;4818472;28;20034;-88
2022/02/11 12:05:45;;;;;;;3.75;0.82;;;;;;;-145.06;0.00;60892.56;4843258;28;20388;-88
2022/02/11 12:08:28;;;;;;;3.58;1.25;;;;;;;-145.06;0.00;60892.56;4837684;28;20054;-88
2022/02/11 12:11:08;;;;;;;2.53;0.90;;;;;;;-145.06;0.00;60892.56;4836777;28;20037;-87
2022/02/11 12:13:47;;;;;;;1.93;0.80;;;;;;;-145.06;0.00;60892.56;4834975;28;20073;-88
2022/02/11 12:16:26;;;;;;;4.20;1.00;;;;;;;-145.06;0.00;60892.56;4828755;28;20037;-87
2022/02/11 12:19:04;;;;;;;4.67;0.90;;;;;;;-145.06;0.00;60892.56;4840599;28;20030;-86
2022/02/11 12:21:43;;;;;;;2.60;0.60;;;;;;;-145.06;0.00;60892.56;4837349;28;20491;-87
2022/02/11 12:27:30;;;;;;;2.55;0.77;;;;;;;-145.06;0.00;60892.56;4839133;28;20281;-88
2022/02/11 12:30:30;;;;;;;1.15;0.60;;;;;;;-145.06;0.00;60892.56;4848118;28;20034;-87
2022/02/11 12:33:08;;;;;;;2.03;0.60;;;;;;;-145.06;0.00;60892.56;4830053;28;20030;-87
2022/02/11 12:35:50;;;;;;;3.13;0.90;;;;;;;-145.06;0.00;60892.56;4830188;28;20496;-87
2022/02/11 12:38:29;;;;;;;4.85;0.90;;;;;;;8.08;0.00;60892.56;4835328;28;20120;-85
2022/02/11 12:41:08;;;;;;;4.00;1.10;;;;;;;-145.06;0.00;60892.56;4828268;28;20026;-86
2022/02/11 12:43:57;;;;;;;2.85;1.02;;;;;;;6.78;0.00;60892.56;4819140;28;20281;-87
2022/02/11 12:46:37;;;;;;;4.07;1.25;;;;;;;-145.06;0.00;60892.56;4824989;28;20496;-87
2022/02/11 12:49:17;;;;;;;4.82;1.17;;;;;;;-145.06;0.00;60892.56;4824256;28;20433;-86
2022/02/11 12:51:57;;;;;;;4.77;1.20;;;;;;;-145.06;0.00;60892.56;4832623;28;20030;-86
2022/02/11 12:54:37;;;;;;;2.90;1.10;;;;;;;-145.06;0.00;60892.56;4829505;28;20042;-86
2022/02/11 12:57:20;;;;;;;2.50;1.00;;;;;;;-145.06;0.00;60892.56;4840060;28;20090;-88
2022/02/11 13:00:00;;;;;;;3.92;1.08;;;;;;;-145.06;0.00;60892.56;4833803;28;20235;-87
2022/02/11 13:02:40;;;;;;;7.65;1.30;;;;;;;-145.06;0.00;60892.56;4833389;28;20037;-87
2022/02/11 13:05:21;;;;;;;2.55;0.90;;;;;;;-145.06;0.00;60892.56;4827029;28;20113;-87
2022/02/11 13:08:00;;;;;;;;;;;;;;;-145.06;0.00;60892.56;4817951;28;20041;-88
2022/02/11 13:10:40;;;;;;;3.05;0.90;;;;;;;-145.06;0.00;60892.56;4834887;28;19925;-86
2022/02/11 13:13:20;;;;;;;4.47;1.00;;;;;;;-145.06;0.00;60892.56;4831404;28;20046;-89
2022/02/11 13:16:03;;;;;;;6.47;1.40;;;;;;;-145.06;0.00;60892.56;4821195;28;20046;-87
2022/02/11 13:18:42;;;;;;;4.20;1.25;;;;;;;-145.06;0.00;60892.56;4819291;28;20038;-88
2022/02/11 13:21:22;;;;;;;;;;;;;;;-145.06;0.00;60892.56;4831541;28;20603;-88
2022/02/11 13:24:03;;;;;;;7.53;1.27;;;;;;;-145.06;0.00;60892.56;4831186;28;19937;-88
2022/02/11 13:26:42;;;;;;;4.43;1.20;;;;;;;-145.06;0.00;60892.56;4830859;28;20037;-90
2022/02/11 13:29:21;;;;;;;3.60;0.90;;;;;;;-145.06;0.00;60892.56;4835043;28;20030;-89
2022/02/11 13:32:00;;;;;;;5.32;1.25;;;;;;;8.08;0.00;60892.56;4851172;28;20025;-88
2022/02/11 13:34:59;;;;;;;2.93;0.93;;;;;;;-145.06;0.00;60892.56;4823748;28;20034;-89
2022/02/11 13:37:45;;;;;;;3.83;1.20;;;;;;;-145.06;0.00;60892.56;4840016;28;20033;-89
2022/02/11 13:40:29;;;;;;;4.68;1.27;;;;;;;-145.06;0.00;60892.56;4853410;28;20034;-89
2022/02/11 13:43:09;;;;;;;5.18;1.20;;;;;;;-145.06;0.00;60892.56;4828910;28;20049;-89
2022/02/11 13:45:51;;;;;;;4.03;1.20;;;;;;;-145.06;0.00;60892.56;4839151;28;20029;-89
2022/02/11 13:48:31;;;;;;;3.08;1.13;;;;;;;7.92;0.00;60892.56;4844674;28;20368;-90
2022/02/11 13:51:13;;;;;;;;;;;;;;;-145.06;0.00;60892.56;4838709;28;20034;-89
2022/02/11 13:53:53;;;;;;;4.38;0.95;;;;;;;-145.06;0.00;60892.56;4838982;28;19917;-88
2022/02/11 13:56:40;;;;;;;6.32;1.20;;;;;;;-145.06;0.00;60892.56;4839221;28;20033;-89
2022/02/11 13:59:32;;;;;;;4.00;1.00;;;;;;;-145.06;0.00;60892.56;4834745;28;20065;-88
2022/02/11 14:02:11;;;;;;;4.15;1.27;;;;;;;-145.06;0.00;60892.56;4832141;28;20030;-90
2022/02/11 14:05:02;;;;;;;3.65;1.02;;;;;;;-145.06;0.00;60892.56;4852531;28;20380;-89
2022/02/11 14:07:55;;;;;;;2.28;0.75;;;;;;;-145.06;0.00;60892.56;4839074;28;20034;-89
2022/02/11 14:10:35;;;;;;;5.25;0.82;;;;;;;-145.06;0.00;60892.56;4832907;28;20069;-90
2022/02/11 14:13:15;;;;;;;3.53;1.13;;;;;;;-145.06;0.00;60892.56;4838025;28;20026;-90
2022/02/11 14:15:54;;;;;;;4.47;1.05;;;;;;;-145.06;0.00;60892.56;4840317;28;20038;-89
2022/02/11 14:18:34;;;;;;;2.60;0.93;;;;;;;-145.06;0.00;60892.56;4832016;28;20030;-89
2022/02/11 14:21:14;;;;;;;;;;;;;;;-145.06;0.00;60892.56;4841165;28;20029;-89
2022/02/11 14:23:53;;;;;;;;;;;;;;;-145.06;0.00;60892.56;4832940;28;19913;-90
2022/02/11 14:26:32;;;;;;;5.07;1.20;;;;;;;-145.06;0.00;60892.56;4852421;28;19944;-89
2022/02/11 14:29:11;;;;;;;6.17;0.93;;;;;;;-145.06;0.00;60892.56;4836996;28;20026;-89
2022/02/11 14:31:54;;;;;;;4.43;1.05;;;;;;;-145.06;0.00;60892.56;4837327;28;20026;-90
2022/02/11 14:34:33;;;;;;;2.60;0.75;;;;;;;-145.06;0.00;60892.56;4852739;28;20042;-88
2022/02/11 14:37:11;;;;;;;5.72;1.23;;;;;;;-145.06;0.00;60892.56;4834832;28;20066;-89
2022/02/11 14:39:51;;;;;;;1.95;0.77;;;;;;;-145.06;0.00;60892.56;4828574;28;20043;-87
2022/02/11 14:42:30;;;;;;;3.63;1.50;;;;;;;-145.06;0.00;60892.56;4837543;28;20042;-88
2022/02/11 14:45:09;;;;;;;6.67;1.20;;;;;;;-145.06;0.00;60892.56;4837488;28;20163;-89
2022/02/11 14:47:48;;;;;;;8.55;1.92;;;;;;;-145.06;0.00;60892.56;4839375;28;20272;-89
2022/02/11 14:50:28;;;;;;;6.43;1.58;;;;;;;-145.06;0.00;60892.56;4850523;28;20041;-90
2022/02/11 14:53:07;;;;;;;;;;;;;;;-145.06;0.00;60892.56;4838231;28;20042;-88
2022/02/11 14:55:46;;;;;;;5.17;1.67;;;;;;;-145.06;0.00;60892.56;4828926;28;19917;-88
2022/02/11 14:58:25;;;;;;;4.90;1.37;;;;;;;-145.06;0.00;60892.56;4836055;28;20033;-89
2022/02/11 15:01:05;;;;;;;4.85;1.33;;;;;;;-145.06;0.00;60892.56;4822449;28;20374;-89
2022/02/11 15:03:44;;;;;;;4.13;1.00;;;;;;;-145.06;0.00;60892.56;4851259;28;20030;-88
2022/02/11 15:06:23;;;;;;;3.17;0.90;;;;;;;-145.06;0.00;60892.56;4838862;28;20049;-88
2022/02/11 15:09:04;;;;;;;3.10;1.03;;;;;;;-145.06;0.00;60892.56;4835279;28;20038;-89
2022/02/11 15:11:43;;;;;;;2.58;0.80;;;;;;;-145.06;0.00;60892.56;4827865;28;20273;-89
2022/02/11 15:14:24;;;;;;;6.78;1.23;;;;;;;-145.06;0.00;60892.56;4831642;28;20037;-89
2022/02/11 15:17:04;;;;;;;4.22;1.10;;;;;;;-145.06;0.00;60892.56;4836424;28;20034;-89
2022/02/11 15:19:43;;;;;;;3.92;0.98;;;;;;;-145.06;0.00;60892.56;4841098;28;20025;-88
2022/02/11 15:22:22;;;;;;;5.33;1.17;;;;;;;-145.06;0.00;60892.56;4831092;28;20468;-88
2022/02/11 15:25:01;;;;;;;4.40;1.27;;;;;;;7.06;0.00;60892.56;4836358;28;20276;-89
2022/02/11 15:27:41;;;;;;;2.90;0.90;;;;;;;-145.06;0.00;60892.56;4831807;28;20038;-89
2022/02/11 15:30:20;;;;;;;2.28;0.80;;;;;;;-145.06;0.00;60892.56;4854015;28;20281;-89
2022/02/11 15:32:59;;;;;;;2.03;0.70;;;;;;;-145.06;0.00;60892.56;4827736;28;20046;-90
2022/02/11 15:35:40;;;;;;;2.28;0.95;;;;;;;-145.06;0.00;60892.56;4834510;28;20029;-88
2022/02/11 15:38:19;;;;;;;;;;;;;;;-145.06;0.00;60892.56;4835757;28;20117;-89
2022/02/11 15:40:58;;;;;;;1.50;0.70;;;;;;;-145.06;0.00;60892.56;4848499;28;20000;-87
2022/02/11 15:43:37;;;;;;;2.83;0.93;;;;;;;-145.06;0.00;60892.56;4832896;28;20268;-89
2022/02/11 15:46:17;;;;;;;1.00;0.45;;;;;;;-145.06;0.00;60892.56;4848608;28;21018;-88
2022/02/11 15:48:56;;;;;;;2.13;0.70;;;;;;;-145.06;0.00;60892.56;4824802;28;20046;-89
2022/02/11 15:51:35;;;;;;;1.87;0.80;;;;;;;-145.06;0.00;60892.56;4842739;28;20038;-89
2022/02/11 15:54:13;;;;;;;1.23;0.60;;;;;;;6.79;0.00;60892.56;4827546;28;20636;-88
2022/02/11 15:56:53;;;;;;;1.20;0.70;;;;;;;6.74;0.00;60892.56;4830914;28;20042;-88
2022/02/11 15:59:32;;;;;;;2.00;0.68;;;;;;;8.08;0.00;60892.56;4831730;28;20441;-90
2022/02/11 16:02:11;;;;;;;3.43;0.80;;;;;;;6.67;0.00;60892.56;4829137;28;20026;-89
2022/02/11 16:04:50;;;;;;;1.88;0.75;;;;;;;6.63;0.00;60892.56;4837637;28;20026;-88
2022/02/11 16:07:29;;;;;;;1.50;0.60;;;;;;;6.60;0.00;60892.56;4835121;28;20033;-89
2022/02/11 16:10:09;;;;;;;1.17;0.65;;;;;;;-145.06;0.00;60892.56;4834924;28;20281;-88
2022/02/11 16:12:49;;;;;;;1.55;0.68;;;;;;;-145.06;0.00;60892.56;4832405;28;20061;-90
2022/02/11 16:15:28;;;;;;;3.03;0.70;;;;;;;10.68;0.00;60892.56;4841739;28;20381;-89
2022/02/11 16:18:14;;;;;;;0.60;0.60;;;;;;;187.52;0.00;60892.56;4833519;28;20397;-89
2022/02/11 16:20:55;;;;;;;1.67;0.60;;;;;;;-145.06;0.00;60892.56;4828933;28;20025;-89
2022/02/11 16:23:40;;;;;;;2.25;0.50;;;;;;;-145.06;0.00;60892.56;4850420;28;20034;-90
2022/02/11 16:26:19;;;;;;;1.55;0.47;;;;;;;-145.06;0.00;60892.56;4830742;28;20022;-89